createdAt,value
2018-03-16T00:00:30.771Z,92.14
2018-03-16T00:01:40.226Z,92.33
2018-03-16T00:02:49.675Z,91.86
2018-03-16T00:03:59.400Z,91.77
2018-03-16T00:05:09.389Z,91.3
2018-03-16T00:06:19.379Z,91.3
2018-03-16T00:07:29.098Z,91.96
2018-03-16T00:08:39.085Z,91.77
2018-03-16T00:09:48.805Z,91.39
2018-03-16T00:10:58.807Z,91.39
2018-03-16T00:12:07.993Z,91.44
2018-03-16T00:13:17.981Z,91.72
2018-03-16T00:14:27.442Z,92
2018-03-16T00:15:37.433Z,91.72
2018-03-16T00:16:47.417Z,92
2018-03-16T00:17:57.408Z,91.72
2018-03-16T00:19:07.402Z,91.91
2018-03-16T00:20:17.386Z,92
2018-03-16T00:21:27.370Z,92.47
2018-03-16T00:22:37.383Z,92.19
2018-03-16T00:23:47.368Z,93.23
2018-03-16T00:24:57.360Z,92.47
2018-03-16T00:26:07.362Z,92.76
2018-03-16T00:27:17.083Z,92.47
2018-03-16T00:28:27.070Z,92.57
2018-03-16T00:29:37.074Z,92.38
2018-03-16T00:30:46.797Z,92.85
2018-03-16T00:31:56.272Z,93.13
2018-03-16T00:33:06.262Z,92.66
2018-03-16T00:34:16.080Z,92.85
2018-03-16T00:35:26.068Z,93.04
2018-03-16T00:36:36.059Z,93.61
2018-03-16T00:37:45.784Z,93.51
2018-03-16T00:38:55.777Z,93.32
2018-03-16T00:40:04.971Z,93.61
2018-03-16T00:41:14.962Z,93.61
2018-03-16T00:42:24.426Z,93.32
2018-03-16T00:43:34.416Z,92.76
2018-03-16T00:44:44.145Z,92.95
2018-03-16T00:45:53.863Z,92.47
2018-03-16T00:47:03.864Z,92.66
2018-03-16T00:48:13.855Z,92.95
2018-03-16T00:49:23.310Z,93.23
2018-03-16T00:50:32.759Z,93.7
2018-03-16T00:51:42.215Z,93.51
2018-03-16T00:52:52.200Z,94.08
2018-03-16T00:54:02.193Z,94.83
2018-03-16T00:55:11.386Z,95.11
2018-03-16T00:56:21.193Z,94.83
2018-03-16T00:57:31.184Z,95.49
2018-03-16T00:58:40.908Z,95.59
2018-03-16T00:59:50.899Z,95.87
2018-03-16T01:01:00.622Z,95.21
2018-03-16T01:02:10.605Z,95.3
2018-03-16T01:03:20.597Z,94.74
2018-03-16T01:04:30.318Z,94.08
2018-03-16T01:05:40.040Z,93.79
2018-03-16T01:06:49.491Z,93.79
2018-03-16T01:07:59.473Z,94.17
2018-03-16T01:09:09.465Z,94.45
2018-03-16T01:10:19.442Z,94.36
2018-03-16T01:11:29.159Z,93.98
2018-03-16T01:12:38.928Z,94.27
2018-03-16T01:13:48.924Z,93.98
2018-03-16T01:14:58.908Z,93.79
2018-03-16T01:16:08.363Z,93.98
2018-03-16T01:17:18.104Z,93.79
2018-03-16T01:18:28.101Z,94.17
2018-03-16T01:19:37.556Z,94.08
2018-03-16T01:20:47.540Z,94.27
2018-03-16T01:21:57.533Z,94.45
2018-03-16T01:23:06.728Z,94.93
2018-03-16T01:24:16.774Z,94.45
2018-03-16T01:25:26.499Z,95.02
2018-03-16T01:26:36.219Z,94.17
2018-03-16T01:27:46.205Z,94.55
2018-03-16T01:28:55.660Z,94.08
2018-03-16T01:30:05.651Z,94.55
2018-03-16T01:31:15.639Z,94.27
2018-03-16T01:32:25.627Z,94.74
2018-03-16T01:33:35.624Z,94.45
2018-03-16T01:34:45.339Z,94.93
2018-03-16T01:35:55.331Z,94.45
2018-03-16T01:37:04.252Z,94.83
2018-03-16T01:38:14.242Z,94.64
2018-03-16T01:39:23.975Z,95.3
2018-03-16T01:40:33.419Z,95.3
2018-03-16T01:41:43.407Z,95.11
2018-03-16T01:42:53.387Z,95.77
2018-03-16T01:44:03.375Z,95.59
2018-03-16T01:45:13.110Z,94.64
2018-03-16T01:46:23.100Z,95.87
2018-03-16T01:47:33.084Z,95.4
2018-03-16T01:48:43.074Z,95.49
2018-03-16T01:49:52.792Z,95.11
2018-03-16T01:51:02.240Z,95.49
2018-03-16T01:52:11.165Z,95.54
2018-03-16T01:53:21.266Z,95.35
2018-03-16T01:54:31.254Z,95.4
2018-03-16T01:55:40.707Z,95.35
2018-03-16T01:56:50.443Z,96.29
2018-03-16T01:58:00.433Z,95.91
2018-03-16T01:59:10.434Z,95.25
2018-03-16T02:00:20.160Z,95.44
2018-03-16T02:01:29.880Z,95.73
2018-03-16T02:02:39.870Z,96.2
2018-03-16T02:03:49.323Z,96.62
2018-03-16T02:04:59.313Z,96.48
2018-03-16T02:06:09.305Z,96.53
2018-03-16T02:07:19.025Z,96.48
2018-03-16T02:08:29.023Z,96.62
2018-03-16T02:09:39.011Z,96.81
2018-03-16T02:10:48.461Z,95.68
2018-03-16T02:11:58.456Z,96.06
2018-03-16T02:13:07.928Z,96.15
2018-03-16T02:14:17.647Z,96.25
2018-03-16T02:15:27.627Z,95.91
2018-03-16T02:16:37.617Z,95.82
2018-03-16T02:17:47.608Z,96.29
2018-03-16T02:18:57.595Z,96.01
2018-03-16T02:20:06.790Z,95.91
2018-03-16T02:21:16.781Z,95.82
2018-03-16T02:22:26.773Z,96.67
2018-03-16T02:23:36.761Z,95.63
2018-03-16T02:24:46.484Z,96.01
2018-03-16T02:25:56.472Z,95.82
2018-03-16T02:27:06.203Z,96.2
2018-03-16T02:28:16.191Z,96.1
2018-03-16T02:29:25.908Z,96.1
2018-03-16T02:30:35.644Z,95.82
2018-03-16T02:31:45.153Z,95.82
2018-03-16T02:32:54.887Z,96.67
2018-03-16T02:34:04.356Z,96.48
2018-03-16T02:35:14.361Z,96.86
2018-03-16T02:36:24.084Z,96.86
2018-03-16T02:37:34.085Z,96.57
2018-03-16T02:38:44.087Z,96.86
2018-03-16T02:39:53.920Z,96.86
2018-03-16T02:41:03.642Z,96.86
2018-03-16T02:42:13.091Z,97.14
2018-03-16T02:43:23.082Z,96.76
2018-03-16T02:44:33.088Z,96.29
2018-03-16T02:45:42.807Z,95.73
2018-03-16T02:46:52.547Z,94.59
2018-03-16T02:48:02.536Z,94.41
2018-03-16T02:49:12.268Z,94.78
2018-03-16T02:50:22.278Z,94.97
2018-03-16T02:51:32.276Z,95.16
2018-03-16T02:52:42.021Z,94.59
2018-03-16T02:53:52.015Z,94.59
2018-03-16T02:55:01.749Z,95.25
2018-03-16T02:56:11.741Z,95.07
2018-03-16T02:57:21.571Z,95.44
2018-03-16T02:58:31.564Z,95.35
2018-03-16T02:59:41.300Z,95.25
2018-03-16T03:00:51.315Z,94.78
2018-03-16T03:02:01.062Z,94.78
2018-03-16T03:03:11.062Z,94.03
2018-03-16T03:04:21.050Z,94.22
2018-03-16T03:05:31.042Z,94.59
2018-03-16T03:06:41.042Z,94.22
2018-03-16T03:07:50.881Z,93.75
2018-03-16T03:09:00.865Z,93.65
2018-03-16T03:10:10.316Z,94.03
2018-03-16T03:11:20.296Z,94.59
2018-03-16T03:12:30.278Z,94.59
2018-03-16T03:13:39.728Z,94.5
2018-03-16T03:14:49.227Z,94.78
2018-03-16T03:15:58.956Z,95.63
2018-03-16T03:17:08.404Z,95.35
2018-03-16T03:18:18.390Z,95.35
2018-03-16T03:19:28.106Z,95.16
2018-03-16T03:20:38.141Z,95.54
2018-03-16T03:21:47.860Z,95.16
2018-03-16T03:22:57.568Z,94.97
2018-03-16T03:24:07.559Z,95.63
2018-03-16T03:25:17.541Z,95.91
2018-03-16T03:26:27.588Z,97.23
2018-03-16T03:27:37.308Z,96.48
2018-03-16T03:28:47.288Z,95.16
2018-03-16T03:29:57.007Z,95.73
2018-03-16T03:31:06.457Z,95.54
2018-03-16T03:32:16.197Z,95.35
2018-03-16T03:33:25.920Z,95.73
2018-03-16T03:34:35.903Z,95.82
2018-03-16T03:35:45.350Z,95.07
2018-03-16T03:36:55.082Z,94.31
2018-03-16T03:38:05.072Z,93.84
2018-03-16T03:39:14.791Z,93.46
2018-03-16T03:40:24.237Z,92.62
2018-03-16T03:41:34.223Z,93.56
2018-03-16T03:42:44.202Z,93.84
2018-03-16T03:43:53.912Z,94.97
2018-03-16T03:45:03.631Z,94.69
2018-03-16T03:46:13.619Z,95.63
2018-03-16T03:47:23.333Z,95.91
2018-03-16T03:48:33.313Z,97.14
2018-03-16T03:49:43.032Z,97.42
2018-03-16T03:50:52.478Z,97.42
2018-03-16T03:52:02.462Z,98.36
2018-03-16T03:53:12.173Z,98.18
2018-03-16T03:54:21.616Z,98.36
2018-03-16T03:55:31.329Z,97.23
2018-03-16T03:56:41.042Z,95.73
2018-03-16T03:57:51.022Z,94.69
2018-03-16T03:59:01.000Z,95.35
2018-03-16T04:00:10.976Z,96.67
2018-03-16T04:04:04.540Z,97.42
2018-03-16T04:05:14.259Z,98.08
2018-03-16T04:06:23.710Z,98.46
2018-03-16T04:07:33.699Z,98.93
2018-03-16T04:08:43.143Z,99.87
2018-03-16T04:09:52.594Z,99.4
2018-03-16T04:11:02.040Z,99.11
2018-03-16T04:12:11.221Z,99.58
2018-03-16T04:13:20.934Z,99.77
2018-03-16T04:14:30.380Z,99.58
2018-03-16T04:15:40.362Z,99.87
2018-03-16T04:16:49.861Z,98.27
2018-03-16T04:17:59.841Z,98.08
2018-03-16T04:19:09.825Z,98.18
2018-03-16T04:20:19.272Z,99.11
2018-03-16T04:21:28.997Z,99.58
2018-03-16T04:22:38.974Z,99.11
2018-03-16T04:23:48.951Z,99.58
2018-03-16T04:24:58.932Z,99.99
2018-03-16T04:26:08.107Z,99.99
2018-03-16T04:27:18.087Z,99.99
2018-03-16T04:28:28.062Z,99.99
2018-03-16T04:29:38.053Z,99.99
2018-03-16T04:30:47.501Z,99.99
2018-03-16T04:31:57.480Z,99.99
2018-03-16T04:33:07.194Z,99.99
2018-03-16T04:34:16.929Z,99.99
2018-03-16T04:35:26.910Z,99.99
2018-03-16T04:36:36.890Z,99.99
2018-03-16T04:37:46.608Z,99.99
2018-03-16T04:38:56.591Z,99.99
2018-03-16T04:40:06.571Z,99.99
2018-03-16T04:41:16.401Z,99.99
2018-03-16T04:42:26.117Z,99.99
2018-03-16T04:43:36.178Z,99.99
2018-03-16T04:44:46.157Z,99.99
2018-03-16T04:45:56.144Z,99.99
2018-03-16T04:47:05.861Z,99.99
2018-03-16T04:48:15.575Z,99.99
2018-03-16T04:49:25.025Z,99.99
2018-03-16T04:50:35.012Z,99.99
2018-03-16T04:51:44.988Z,99.99
2018-03-16T04:52:54.709Z,99.99
2018-03-16T04:54:04.162Z,99.99
2018-03-16T04:55:14.149Z,99.4
2018-03-16T04:56:23.867Z,99.11
2018-03-16T04:57:33.588Z,99.58
2018-03-16T04:58:43.314Z,99.96
2018-03-16T04:59:53.295Z,99.77
2018-03-16T05:01:03.008Z,99.68
2018-03-16T05:02:12.718Z,99.4
2018-03-16T05:03:22.760Z,99.49
2018-03-16T05:04:31.942Z,99.58
2018-03-16T05:05:41.922Z,99.58
2018-03-16T05:06:51.903Z,99.68
2018-03-16T05:08:01.080Z,99.49
2018-03-16T05:09:10.799Z,99.4
2018-03-16T05:10:20.799Z,98.74
2018-03-16T05:11:30.245Z,98.74
2018-03-16T05:12:40.224Z,98.55
2018-03-16T05:13:49.932Z,98.65
2018-03-16T05:14:59.914Z,99.58
2018-03-16T05:16:09.640Z,99.4
2018-03-16T05:17:19.616Z,99.68
2018-03-16T05:18:29.596Z,99.49
2018-03-16T05:19:39.091Z,99.3
2018-03-16T05:20:49.072Z,99.49
2018-03-16T05:21:59.182Z,99.68
2018-03-16T05:23:09.172Z,99.68
2018-03-16T05:24:18.890Z,99.99
2018-03-16T05:25:28.604Z,99.99
2018-03-16T05:26:38.586Z,99.99
2018-03-16T05:27:48.297Z,99.99
2018-03-16T05:28:58.015Z,99.99
2018-03-16T05:30:07.738Z,99.49
2018-03-16T05:31:17.818Z,99.11
2018-03-16T05:32:27.531Z,99.11
2018-03-16T05:33:37.245Z,99.4
2018-03-16T05:34:47.235Z,98.83
2018-03-16T05:35:57.220Z,98.46
2018-03-16T05:37:07.200Z,98.36
2018-03-16T05:38:16.913Z,97.89
2018-03-16T05:39:26.628Z,97.99
2018-03-16T05:40:36.343Z,98.18
2018-03-16T05:41:46.458Z,98.65
2018-03-16T05:42:55.912Z,98.08
2018-03-16T05:44:05.633Z,98.08
2018-03-16T05:45:15.653Z,97.99
2018-03-16T05:46:25.372Z,98.46
2018-03-16T05:47:35.349Z,98.74
2018-03-16T05:48:45.174Z,98.65
2018-03-16T05:49:55.158Z,99.4
2018-03-16T05:51:04.339Z,99.4
2018-03-16T05:52:14.054Z,98.83
2018-03-16T05:53:23.771Z,98.36
2018-03-16T05:54:34.097Z,98.46
2018-03-16T05:55:44.077Z,97.99
2018-03-16T05:56:53.789Z,98.36
2018-03-16T05:58:03.503Z,98.36
2018-03-16T05:59:13.217Z,98.08
2018-03-16T06:00:22.934Z,98.36
2018-03-16T06:01:32.653Z,97.89
2018-03-16T06:02:42.647Z,98.27
2018-03-16T06:03:52.095Z,97.42
2018-03-16T06:05:02.079Z,97.04
2018-03-16T06:06:11.527Z,97.14
2018-03-16T06:07:21.511Z,97.04
2018-03-16T06:08:31.501Z,97.04
2018-03-16T06:09:40.952Z,97.23
2018-03-16T06:10:50.931Z,97.52
2018-03-16T06:12:00.923Z,96.67
2018-03-16T06:13:10.638Z,96.76
2018-03-16T06:14:20.359Z,96.29
2018-03-16T06:15:29.820Z,95.82
2018-03-16T06:16:39.536Z,95.63
2018-03-16T06:17:49.525Z,95.91
2018-03-16T06:18:59.511Z,95.91
2018-03-16T06:20:09.229Z,96.01
2018-03-16T06:21:18.951Z,95.54
2018-03-16T06:22:28.936Z,95.91
2018-03-16T06:23:38.654Z,95.44
2018-03-16T06:24:48.376Z,95.44
2018-03-16T06:25:58.367Z,95.35
2018-03-16T06:27:08.078Z,94.41
2018-03-16T06:28:18.065Z,94.97
2018-03-16T06:29:27.787Z,94.31
2018-03-16T06:30:37.778Z,94.31
2018-03-16T06:31:47.231Z,94.03
2018-03-16T06:32:56.951Z,94.31
2018-03-16T06:34:06.998Z,94.12
2018-03-16T06:35:16.981Z,93.65
2018-03-16T06:36:26.962Z,92.24
2018-03-16T06:37:37.000Z,92.62
2018-03-16T06:38:46.978Z,92.33
2018-03-16T06:39:56.954Z,92.62
2018-03-16T06:41:05.895Z,92.71
2018-03-16T06:42:15.878Z,92.43
2018-03-16T06:43:25.598Z,92.43
2018-03-16T06:44:35.690Z,92.33
2018-03-16T06:45:46.219Z,91.86
2018-03-16T06:46:56.246Z,92.62
2018-03-16T06:48:06.219Z,92.24
2018-03-16T06:49:15.942Z,92.24
2018-03-16T06:50:25.927Z,92.8
2018-03-16T06:51:35.909Z,92.52
2018-03-16T06:52:45.895Z,93.56
2018-03-16T06:53:55.646Z,93.37
2018-03-16T06:55:05.373Z,93.65
2018-03-16T06:56:15.358Z,93.37
2018-03-16T06:57:24.808Z,93.84
2018-03-16T06:58:34.792Z,93.56
2018-03-16T06:59:44.523Z,93.75
2018-03-16T07:00:54.564Z,93.94
2018-03-16T07:02:04.295Z,93.75
2018-03-16T07:03:14.346Z,93.18
2018-03-16T07:04:24.552Z,92.8
2018-03-16T07:05:34.538Z,93.56
2018-03-16T07:06:44.253Z,93.65
2018-03-16T07:07:54.233Z,93.46
2018-03-16T07:09:03.684Z,93.18
2018-03-16T07:10:13.672Z,93.28
2018-03-16T07:11:23.388Z,93.28
2018-03-16T07:12:33.369Z,93.37
2018-03-16T07:13:43.087Z,92.99
2018-03-16T07:14:52.544Z,92.8
2018-03-16T07:16:02.538Z,93.09
2018-03-16T07:17:12.519Z,92.62
2018-03-16T07:18:22.499Z,92.62
2018-03-16T07:19:32.483Z,92.05
2018-03-16T07:20:42.198Z,92.24
2018-03-16T07:21:51.958Z,92.05
2018-03-16T07:23:01.941Z,92.71
2018-03-16T07:24:11.966Z,92.8
2018-03-16T07:25:21.677Z,92.9
2018-03-16T07:26:31.388Z,92.43
2018-03-16T07:27:41.103Z,92.05
2018-03-16T07:28:51.083Z,91.67
2018-03-16T07:30:01.071Z,91.67
2018-03-16T07:31:09.989Z,92.15
2018-03-16T07:32:19.974Z,92.52
2018-03-16T07:33:29.956Z,92.99
2018-03-16T07:34:39.948Z,93.46
2018-03-16T07:35:49.949Z,93.28
2018-03-16T07:36:59.663Z,93.28
2018-03-16T07:38:08.845Z,92.71
2018-03-16T07:39:18.828Z,92.71
2018-03-16T07:40:28.822Z,92.52
2018-03-16T07:41:38.815Z,93.28
2018-03-16T07:42:48.614Z,93.46
2018-03-16T07:43:58.416Z,93.28
2018-03-16T07:45:07.885Z,93.56
2018-03-16T07:46:17.875Z,93.28
2018-03-16T07:47:28.562Z,93.28
2018-03-16T07:48:38.648Z,93.28
2018-03-16T07:49:48.632Z,93.28
2018-03-16T07:50:58.723Z,92.8
2018-03-16T07:52:07.913Z,93.46
2018-03-16T07:53:17.409Z,93.46
2018-03-16T07:54:27.403Z,93.75
2018-03-16T07:55:37.389Z,94.12
2018-03-16T07:56:47.129Z,94.22
2018-03-16T07:57:57.109Z,94.03
2018-03-16T07:59:06.829Z,93.75
2018-03-16T08:00:17.250Z,94.31
2018-03-16T08:01:27.042Z,93.37
2018-03-16T08:02:37.029Z,93.37
2018-03-16T08:03:46.759Z,93.46
2018-03-16T08:04:56.214Z,93.89
2018-03-16T08:06:05.665Z,93.32
2018-03-16T08:07:15.388Z,93.61
2018-03-16T08:08:25.153Z,92.29
2018-03-16T08:09:35.144Z,92.66
2018-03-16T08:10:45.133Z,92.19
2018-03-16T08:11:55.196Z,92.29
2018-03-16T08:13:04.680Z,91.35
2018-03-16T08:14:14.683Z,90.97
2018-03-16T08:15:24.479Z,90.88
2018-03-16T08:16:34.461Z,90.78
2018-03-16T08:17:44.450Z,89.75
2018-03-16T08:18:54.173Z,89.65
2018-03-16T08:20:04.013Z,89.65
2018-03-16T08:21:14.074Z,89.65
2018-03-16T08:22:23.799Z,89.75
2018-03-16T08:23:33.639Z,89.84
2018-03-16T08:24:43.630Z,89.75
2018-03-16T08:25:53.640Z,89.75
2018-03-16T08:27:03.366Z,89.65
2018-03-16T08:28:13.171Z,89.94
2018-03-16T08:29:22.991Z,89.18
2018-03-16T08:30:32.738Z,89.18
2018-03-16T08:31:42.726Z,88.43
2018-03-16T08:32:52.441Z,88.52
2018-03-16T08:34:01.918Z,88.34
2018-03-16T08:35:11.984Z,88.15
2018-03-16T08:36:21.705Z,87.68
2018-03-16T08:37:31.695Z,87.58
2018-03-16T08:38:41.412Z,87.58
2018-03-16T08:39:51.414Z,87.2
2018-03-16T08:41:01.188Z,87.02
2018-03-16T08:42:10.913Z,87.02
2018-03-16T08:43:20.627Z,87.11
2018-03-16T08:44:30.364Z,87.11
2018-03-16T08:45:40.115Z,87.49
2018-03-16T08:46:50.154Z,86.54
2018-03-16T08:48:00.148Z,86.64
2018-03-16T08:49:09.441Z,87.02
2018-03-16T08:50:19.430Z,86.36
2018-03-16T08:51:29.156Z,85.98
2018-03-16T08:52:39.143Z,85.32
2018-03-16T08:53:49.141Z,85.04
2018-03-16T08:54:58.600Z,84.47
2018-03-16T08:56:07.783Z,84.66
2018-03-16T08:57:17.780Z,84.19
2018-03-16T08:58:27.770Z,84.09
2018-03-16T08:59:37.490Z,84.38
2018-03-16T09:00:47.288Z,83.95
2018-03-16T09:01:57.275Z,83.29
2018-03-16T09:03:07.273Z,82.92
2018-03-16T09:04:17.287Z,82.63
2018-03-16T09:05:26.752Z,82.07
2018-03-16T09:06:36.745Z,82.07
2018-03-16T09:07:46.761Z,82.35
2018-03-16T09:08:56.749Z,82.07
2018-03-16T09:10:06.738Z,81.5
2018-03-16T09:11:16.725Z,81.03
2018-03-16T09:12:26.761Z,81.22
2018-03-16T09:13:36.378Z,81.31
2018-03-16T09:14:46.101Z,81.22
2018-03-16T09:15:55.834Z,80.46
2018-03-16T09:17:05.296Z,80.84
2018-03-16T09:18:15.350Z,80.37
2018-03-16T09:19:25.343Z,80.33
2018-03-16T09:20:35.336Z,80.18
2018-03-16T09:21:45.326Z,80.56
2018-03-16T09:22:54.783Z,80.08
2018-03-16T09:24:04.352Z,80.37
2018-03-16T09:25:13.809Z,80.37
2018-03-16T09:26:23.799Z,79.71
2018-03-16T09:27:33.522Z,79.8
2018-03-16T09:28:43.519Z,79.8
2018-03-16T09:29:53.244Z,79.9
2018-03-16T09:31:02.973Z,79.33
2018-03-16T09:32:12.704Z,79.33
2018-03-16T09:33:22.431Z,79.14
2018-03-16T09:34:32.418Z,78.77
2018-03-16T09:35:42.160Z,78.77
2018-03-16T09:36:52.151Z,79.05
2018-03-16T09:38:02.138Z,78.58
2018-03-16T09:39:11.602Z,78.49
2018-03-16T09:40:21.593Z,78.39
2018-03-16T09:41:31.592Z,78.58
2018-03-16T09:42:41.578Z,78.39
2018-03-16T09:43:51.566Z,78.39
2018-03-16T09:45:01.031Z,77.92
2018-03-16T09:46:10.486Z,77.55
2018-03-16T09:47:20.479Z,76.98
2018-03-16T09:48:30.206Z,76.98
2018-03-16T09:49:40.194Z,76.7
2018-03-16T09:50:50.190Z,76.6
2018-03-16T09:51:59.916Z,76.7
2018-03-16T09:53:09.914Z,76.79
2018-03-16T09:54:19.644Z,76.41
2018-03-16T09:55:29.114Z,76.22
2018-03-16T09:56:38.844Z,76.89
2018-03-16T09:57:48.839Z,76.79
2018-03-16T09:58:58.839Z,76.13
2018-03-16T10:00:08.835Z,76.04
2018-03-16T10:01:18.830Z,75.56
2018-03-16T10:02:28.561Z,75.66
2018-03-16T10:03:38.564Z,75.56
2018-03-16T10:04:48.556Z,75.66
2018-03-16T10:05:58.551Z,75.09
2018-03-16T10:07:08.019Z,75.56
2018-03-16T10:08:18.012Z,75.09
2018-03-16T10:09:28.024Z,75.19
2018-03-16T10:10:37.751Z,74.24
2018-03-16T10:11:47.218Z,74.34
2018-03-16T10:12:57.213Z,74.53
2018-03-16T10:14:06.970Z,74.15
2018-03-16T10:15:16.957Z,74.43
2018-03-16T10:16:26.683Z,73.96
2018-03-16T10:17:36.453Z,74.05
2018-03-16T10:18:46.190Z,74.1
2018-03-16T10:19:55.911Z,73.21
2018-03-16T10:21:05.366Z,73.3
2018-03-16T10:22:14.824Z,73.62
2018-03-16T10:23:24.816Z,73.72
2018-03-16T10:24:34.546Z,73.25
2018-03-16T10:25:44.265Z,72.96
2018-03-16T10:26:53.995Z,72.96
2018-03-16T10:28:03.728Z,72.3
2018-03-16T10:29:13.186Z,72.3
2018-03-16T10:30:23.179Z,72.3
2018-03-16T10:31:33.217Z,72.96
2018-03-16T10:32:42.945Z,73.06
2018-03-16T10:33:52.667Z,72.4
2018-03-16T10:35:02.389Z,71.64
2018-03-16T10:36:12.382Z,71.26
2018-03-16T10:37:22.393Z,70.23
2018-03-16T10:38:32.435Z,69.76
2018-03-16T10:39:42.434Z,69.85
2018-03-16T10:40:52.433Z,70.14
2018-03-16T10:42:02.157Z,70.14
2018-03-16T10:43:11.615Z,69.76
2018-03-16T10:44:21.340Z,69.67
2018-03-16T10:45:31.069Z,69.85
2018-03-16T10:46:41.064Z,69.67
2018-03-16T10:47:50.791Z,69.95
2018-03-16T10:49:00.814Z,69.38
2018-03-16T10:50:10.641Z,69.38
2018-03-16T10:51:20.649Z,69.67
2018-03-16T10:52:30.383Z,68.82
2018-03-16T10:53:40.113Z,69.19
2018-03-16T10:54:50.143Z,68.82
2018-03-16T10:55:59.881Z,68.91
2018-03-16T10:57:09.614Z,68.63
2018-03-16T10:58:19.352Z,68.72
2018-03-16T10:59:29.342Z,68.72
2018-03-16T11:00:39.071Z,68.72
2018-03-16T11:01:49.064Z,68.66
2018-03-16T11:02:58.853Z,68.19
2018-03-16T11:04:08.845Z,68.19
2018-03-16T11:05:18.572Z,67.34
2018-03-16T11:06:28.046Z,67.15
2018-03-16T11:07:38.045Z,67.34
2018-03-16T11:08:48.107Z,67.43
2018-03-16T11:09:58.108Z,67.34
2018-03-16T11:11:08.116Z,67.25
2018-03-16T11:12:17.855Z,66.49
2018-03-16T11:13:27.855Z,66.68
2018-03-16T11:14:37.851Z,66.15
2018-03-16T11:15:47.844Z,65.96
2018-03-16T11:16:57.580Z,65.3
2018-03-16T11:18:07.054Z,64.39
2018-03-16T11:19:17.053Z,62.88
2018-03-16T11:20:26.512Z,62.97
2018-03-16T11:21:35.707Z,61.46
2018-03-16T11:22:45.447Z,61.21
2018-03-16T11:23:55.175Z,59.98
2018-03-16T11:25:05.180Z,58.94
2018-03-16T11:26:15.289Z,57.81
2018-03-16T11:27:25.321Z,57.81
2018-03-16T11:28:35.325Z,57.46
2018-03-16T11:29:44.792Z,56.61
2018-03-16T11:30:54.801Z,56.23
2018-03-16T11:32:04.559Z,54.91
2018-03-16T11:33:14.310Z,54.44
2018-03-16T11:34:24.319Z,53.58
2018-03-16T11:35:34.057Z,53.39
2018-03-16T11:36:43.803Z,53.39
2018-03-16T11:37:53.814Z,53.58
2018-03-16T11:39:03.824Z,53.3
2018-03-16T11:40:13.581Z,53.02
2018-03-16T11:41:23.325Z,52.38
2018-03-16T11:42:33.332Z,52.76
2018-03-16T11:43:43.074Z,52.29
2018-03-16T11:44:53.082Z,52.38
2018-03-16T11:46:03.093Z,51.72
2018-03-16T11:47:12.835Z,51.53
2018-03-16T11:48:22.582Z,51.18
2018-03-16T11:49:32.703Z,51.18
2018-03-16T11:50:42.447Z,50.33
2018-03-16T11:51:52.186Z,49.95
2018-03-16T11:53:02.187Z,49.29
2018-03-16T11:54:11.931Z,49.31
2018-03-16T11:55:21.677Z,49.6
2018-03-16T11:56:31.421Z,48.08
2018-03-16T11:57:41.430Z,48.08
2018-03-16T11:58:51.441Z,47.89
2018-03-16T12:00:01.193Z,47.61
2018-03-16T12:01:10.671Z,47.61
2018-03-16T12:02:20.145Z,48.08
2018-03-16T12:03:29.617Z,47.32
2018-03-16T12:04:39.363Z,46.66
2018-03-16T12:05:49.376Z,45.9
2018-03-16T12:06:59.389Z,45.45
2018-03-16T12:08:09.129Z,46.69
2018-03-16T12:09:18.874Z,46.4
2018-03-16T12:10:28.349Z,46.12
2018-03-16T12:11:38.361Z,45.45
2018-03-16T12:12:48.779Z,44.51
2018-03-16T12:13:58.795Z,44.89
2018-03-16T12:15:08.273Z,43.56
2018-03-16T12:16:18.290Z,43.46
2018-03-16T12:17:27.770Z,43.75
2018-03-16T12:18:36.980Z,43.46
2018-03-16T12:19:46.988Z,43.46
2018-03-16T12:20:57.004Z,42.9
2018-03-16T12:22:06.482Z,43.75
2018-03-16T12:23:16.236Z,43.94
2018-03-16T12:24:26.248Z,43.46
2018-03-16T12:25:36.000Z,42.9
2018-03-16T12:26:45.745Z,43.08
2018-03-16T12:27:55.493Z,43.08
2018-03-16T12:29:05.519Z,42.99
2018-03-16T12:30:15.264Z,43.11
2018-03-16T12:31:25.009Z,42.92
2018-03-16T12:32:34.753Z,42.63
2018-03-16T12:33:44.499Z,43.08
2018-03-16T12:34:54.514Z,42.99
2018-03-16T12:36:04.520Z,42.73
2018-03-16T12:37:14.295Z,42.25
2018-03-16T12:38:24.343Z,42.25
2018-03-16T12:39:34.110Z,41.97
2018-03-16T12:40:43.854Z,41.88
2018-03-16T12:41:53.602Z,41.21
2018-03-16T12:43:03.381Z,41.97
2018-03-16T12:44:13.400Z,41.88
2018-03-16T12:45:23.413Z,42.07
2018-03-16T12:46:33.423Z,41.4
2018-03-16T12:47:43.543Z,41.4
2018-03-16T12:48:53.348Z,41.4
2018-03-16T12:50:02.822Z,41.78
2018-03-16T12:51:12.830Z,41.31
2018-03-16T12:52:23.404Z,41.31
2018-03-16T12:53:33.524Z,41.12
2018-03-16T12:54:43.558Z,41.88
2018-03-16T12:55:53.566Z,41.21
2018-03-16T12:57:03.312Z,40.55
2018-03-16T12:58:13.057Z,40.45
2018-03-16T12:59:22.816Z,41.12
2018-03-16T13:00:32.297Z,41.59
2018-03-16T13:01:42.313Z,41.59
2018-03-16T13:02:52.330Z,42.37
2018-03-16T13:04:02.084Z,41.44
2018-03-16T13:05:11.877Z,42.27
2018-03-16T13:06:21.370Z,43.53
2018-03-16T13:07:30.847Z,41.66
2018-03-16T13:08:40.325Z,41.58
2018-03-16T13:09:50.350Z,41.58
2018-03-16T13:11:00.100Z,38.46
2018-03-16T13:12:10.136Z,37.78
2018-03-16T13:13:19.640Z,37.86
2018-03-16T13:14:29.389Z,38.14
2018-03-16T13:15:39.403Z,38.31
2018-03-16T13:16:49.165Z,38.41
2018-03-16T13:17:59.179Z,38.96
2018-03-16T13:19:08.663Z,38.94
2018-03-16T13:20:18.862Z,39.98
2018-03-16T13:21:28.881Z,40.34
2018-03-16T13:22:38.098Z,41
2018-03-16T13:23:48.161Z,41.64
2018-03-16T13:24:58.177Z,42.21
2018-03-16T13:26:07.655Z,42.95
2018-03-16T13:27:17.672Z,43.59
2018-03-16T13:28:27.148Z,44.63
2018-03-16T13:29:37.165Z,45.55
2018-03-16T13:30:47.187Z,46.59
2018-03-16T13:31:57.234Z,47.72
2018-03-16T13:33:07.024Z,47.91
2018-03-16T13:34:16.811Z,47.91
2018-03-16T13:35:26.554Z,48.29
2018-03-16T13:36:36.566Z,48.76
2018-03-16T13:37:46.306Z,49.05
2018-03-16T13:38:56.380Z,48.67
2018-03-16T13:40:06.130Z,49.14
2018-03-16T13:41:16.137Z,49.33
2018-03-16T13:42:25.881Z,49.43
2018-03-16T13:43:35.630Z,48.67
2018-03-16T13:44:45.641Z,48.2
2018-03-16T13:45:55.402Z,47.53
2018-03-16T13:47:05.412Z,48.39
2018-03-16T13:48:15.206Z,48.1
2018-03-16T13:49:25.224Z,48.76
2018-03-16T13:50:34.962Z,47.82
2018-03-16T13:51:44.447Z,48.01
2018-03-16T13:52:54.513Z,48.1
2018-03-16T13:54:03.479Z,47.91
2018-03-16T13:55:13.218Z,47.82
2018-03-16T13:56:22.954Z,47.99
2018-03-16T13:57:32.419Z,48.46
2018-03-16T13:58:42.431Z,49.49
2018-03-16T13:59:52.168Z,49.62
2018-03-16T14:01:01.632Z,49.33
2018-03-16T14:02:11.107Z,48.67
2018-03-16T14:03:21.107Z,48.55
2018-03-16T14:04:30.570Z,48.55
2018-03-16T14:05:40.302Z,49.3
2018-03-16T14:06:49.818Z,49.97
2018-03-16T14:07:59.553Z,50.25
2018-03-16T14:09:09.666Z,51.39
2018-03-16T14:10:19.533Z,51.73
2018-03-16T14:11:29.290Z,51.73
2018-03-16T14:12:39.286Z,51.73
2018-03-16T14:13:49.290Z,52.49
2018-03-16T14:14:59.293Z,52.78
2018-03-16T14:16:08.763Z,52.02
2018-03-16T14:17:18.329Z,52.49
2018-03-16T14:18:28.344Z,52.87
2018-03-16T14:19:38.346Z,52.87
2018-03-16T14:20:48.399Z,52.78
2018-03-16T14:21:58.134Z,52.68
2018-03-16T14:23:07.865Z,52.4
2018-03-16T14:24:17.878Z,51.54
2018-03-16T14:25:27.879Z,51.73
2018-03-16T14:26:37.345Z,51.54
2018-03-16T14:27:47.348Z,51.07
2018-03-16T14:28:57.136Z,50.98
2018-03-16T14:30:07.177Z,51.07
2018-03-16T14:31:17.223Z,51.07
2018-03-16T14:32:27.223Z,51.07
2018-03-16T14:33:37.236Z,51.07
2018-03-16T14:34:46.709Z,51.17
2018-03-16T14:35:56.445Z,50.89
2018-03-16T14:37:06.195Z,50.16
2018-03-16T14:38:15.930Z,49.87
2018-03-16T14:39:25.929Z,49.21
2018-03-16T14:40:35.135Z,49.21
2018-03-16T14:41:44.971Z,49.02
2018-03-16T14:42:54.977Z,48.93
2018-03-16T14:44:04.455Z,49.24
2018-03-16T14:45:14.515Z,49.14
2018-03-16T14:46:24.251Z,48.76
2018-03-16T14:47:34.254Z,48.67
2018-03-16T14:48:44.257Z,48.32
2018-03-16T14:49:53.725Z,48.32
2018-03-16T14:51:03.731Z,48.15
2018-03-16T14:52:13.746Z,47.68
2018-03-16T14:53:23.758Z,45.72
2018-03-16T14:54:33.765Z,45.64
2018-03-16T14:55:43.771Z,44.7
2018-03-16T14:56:53.777Z,43.68
2018-03-16T14:58:03.253Z,41.14
2018-03-16T14:59:13.272Z,39.24
2018-03-16T15:00:23.011Z,38.75
2018-03-16T15:01:33.022Z,38.09
2018-03-16T15:02:43.054Z,37.59
2018-03-16T15:03:52.255Z,38.64
2018-03-16T15:05:02.304Z,39